sensor_id;sensor_type;location;lat;lon;timestamp;temperature;humidity
53264;DHT22;39153;52.680;6.172;2022-08-20T00:01:44;19.70;99.90
53264;DHT22;39153;52.680;6.172;2022-08-20T00:04:11;19.60;99.90
53264;DHT22;39153;52.680;6.172;2022-08-20T00:06:37;19.60;99.90
53264;DHT22;39153;52.680;6.172;2022-08-20T00:09:04;19.60;99.90
53264;DHT22;39153;52.680;6.172;2022-08-20T00:11:30;19.50;99.90
53264;DHT22;39153;52.680;6.172;2022-08-20T00:14:00;19.60;99.90
53264;DHT22;39153;52.680;6.172;2022-08-20T00:16:31;19.50;99.90
53264;DHT22;39153;52.680;6.172;2022-08-20T00:19:01;19.60;99.90
53264;DHT22;39153;52.680;6.172;2022-08-20T00:21:27;19.50;99.90
53264;DHT22;39153;52.680;6.172;2022-08-20T00:23:54;19.50;99.90
53264;DHT22;39153;52.680;6.172;2022-08-20T00:26:21;19.50;99.90
53264;DHT22;39153;52.680;6.172;2022-08-20T00:28:47;19.50;99.90
53264;DHT22;39153;52.680;6.172;2022-08-20T00:31:16;19.40;99.90
53264;DHT22;39153;52.680;6.172;2022-08-20T00:33:43;19.50;99.90
53264;DHT22;39153;52.680;6.172;2022-08-20T00:36:09;19.50;99.90
53264;DHT22;39153;52.680;6.172;2022-08-20T00:38:41;19.50;99.90
53264;DHT22;39153;52.680;6.172;2022-08-20T00:41:11;19.60;99.90
53264;DHT22;39153;52.680;6.172;2022-08-20T00:43:46;19.50;99.90
53264;DHT22;39153;52.680;6.172;2022-08-20T00:46:23;19.50;99.90
53264;DHT22;39153;52.680;6.172;2022-08-20T00:48:53;19.50;99.90
53264;DHT22;39153;52.680;6.172;2022-08-20T00:51:41;19.50;99.90
53264;DHT22;39153;52.680;6.172;2022-08-20T00:54:15;19.40;99.90
53264;DHT22;39153;52.680;6.172;2022-08-20T00:56:44;19.40;99.90
53264;DHT22;39153;52.680;6.172;2022-08-20T00:59:15;19.30;99.90
53264;DHT22;39153;52.680;6.172;2022-08-20T01:01:42;19.40;99.90
53264;DHT22;39153;52.680;6.172;2022-08-20T01:04:09;19.30;99.90
53264;DHT22;39153;52.680;6.172;2022-08-20T01:06:36;19.40;99.90
53264;DHT22;39153;52.680;6.172;2022-08-20T01:09:04;19.30;99.90
53264;DHT22;39153;52.680;6.172;2022-08-20T01:11:30;19.30;99.90
53264;DHT22;39153;52.680;6.172;2022-08-20T01:14:01;19.20;99.90
53264;DHT22;39153;52.680;6.172;2022-08-20T01:16:54;19.30;99.90
53264;DHT22;39153;52.680;6.172;2022-08-20T01:19:24;19.20;99.90
53264;DHT22;39153;52.680;6.172;2022-08-20T01:21:51;19.20;99.90
53264;DHT22;39153;52.680;6.172;2022-08-20T01:24:30;19.10;99.90
53264;DHT22;39153;52.680;6.172;2022-08-20T01:26:59;19.20;99.90
53264;DHT22;39153;52.680;6.172;2022-08-20T01:29:30;19.10;99.90
53264;DHT22;39153;52.680;6.172;2022-08-20T01:31:58;19.10;99.90
53264;DHT22;39153;52.680;6.172;2022-08-20T01:34:26;19.00;99.90
53264;DHT22;39153;52.680;6.172;2022-08-20T01:36:55;19.00;99.90
53264;DHT22;39153;52.680;6.172;2022-08-20T01:39:28;18.90;99.90
53264;DHT22;39153;52.680;6.172;2022-08-20T01:42:13;18.90;99.90
53264;DHT22;39153;52.680;6.172;2022-08-20T01:44:41;18.80;99.90
53264;DHT22;39153;52.680;6.172;2022-08-20T01:47:18;18.90;99.90
53264;DHT22;39153;52.680;6.172;2022-08-20T01:49:46;18.90;99.90
53264;DHT22;39153;52.680;6.172;2022-08-20T01:52:24;18.80;99.90
53264;DHT22;39153;52.680;6.172;2022-08-20T01:54:51;18.80;99.90
53264;DHT22;39153;52.680;6.172;2022-08-20T01:57:19;18.90;99.90
53264;DHT22;39153;52.680;6.172;2022-08-20T01:59:47;18.80;99.90
53264;DHT22;39153;52.680;6.172;2022-08-20T02:02:14;18.80;99.90
53264;DHT22;39153;52.680;6.172;2022-08-20T02:04:40;18.80;99.90
53264;DHT22;39153;52.680;6.172;2022-08-20T02:07:10;18.80;99.90
53264;DHT22;39153;52.680;6.172;2022-08-20T02:09:37;18.80;99.90
53264;DHT22;39153;52.680;6.172;2022-08-20T02:12:05;19.00;99.90
53264;DHT22;39153;52.680;6.172;2022-08-20T02:14:32;18.90;99.90
53264;DHT22;39153;52.680;6.172;2022-08-20T02:16:58;19.00;99.90
53264;DHT22;39153;52.680;6.172;2022-08-20T02:22:54;19.00;99.90
53264;DHT22;39153;52.680;6.172;2022-08-20T02:25:22;18.80;99.90
53264;DHT22;39153;52.680;6.172;2022-08-20T02:27:49;18.80;99.90
53264;DHT22;39153;52.680;6.172;2022-08-20T02:30:22;18.70;99.90
53264;DHT22;39153;52.680;6.172;2022-08-20T02:32:50;18.80;99.90
53264;DHT22;39153;52.680;6.172;2022-08-20T02:35:16;18.60;99.90
53264;DHT22;39153;52.680;6.172;2022-08-20T02:37:44;18.60;99.90
53264;DHT22;39153;52.680;6.172;2022-08-20T02:40:13;18.50;99.90
53264;DHT22;39153;52.680;6.172;2022-08-20T02:42:39;18.60;99.90
53264;DHT22;39153;52.680;6.172;2022-08-20T02:45:11;18.50;99.90
53264;DHT22;39153;52.680;6.172;2022-08-20T02:47:37;18.50;99.90
53264;DHT22;39153;52.680;6.172;2022-08-20T02:50:06;18.50;99.90
53264;DHT22;39153;52.680;6.172;2022-08-20T02:52:32;18.50;99.90
53264;DHT22;39153;52.680;6.172;2022-08-20T02:54:57;18.60;99.90
53264;DHT22;39153;52.680;6.172;2022-08-20T02:57:23;18.60;99.90
53264;DHT22;39153;52.680;6.172;2022-08-20T02:59:49;18.60;99.90
53264;DHT22;39153;52.680;6.172;2022-08-20T03:02:16;18.60;99.90
53264;DHT22;39153;52.680;6.172;2022-08-20T03:04:43;18.70;99.90
53264;DHT22;39153;52.680;6.172;2022-08-20T03:07:09;18.60;99.90
53264;DHT22;39153;52.680;6.172;2022-08-20T03:09:35;18.60;99.90
53264;DHT22;39153;52.680;6.172;2022-08-20T03:12:01;18.60;99.90
53264;DHT22;39153;52.680;6.172;2022-08-20T03:14:27;18.60;99.90
53264;DHT22;39153;52.680;6.172;2022-08-20T03:16:53;18.50;99.90
53264;DHT22;39153;52.680;6.172;2022-08-20T03:19:19;18.60;99.90
53264;DHT22;39153;52.680;6.172;2022-08-20T03:21:45;18.50;99.90
53264;DHT22;39153;52.680;6.172;2022-08-20T03:24:10;18.50;99.90
53264;DHT22;39153;52.680;6.172;2022-08-20T03:26:36;18.50;99.90
53264;DHT22;39153;52.680;6.172;2022-08-20T03:29:02;18.40;99.90
53264;DHT22;39153;52.680;6.172;2022-08-20T03:31:28;18.40;99.90
53264;DHT22;39153;52.680;6.172;2022-08-20T03:33:54;18.40;99.90
53264;DHT22;39153;52.680;6.172;2022-08-20T03:36:21;18.20;99.90
53264;DHT22;39153;52.680;6.172;2022-08-20T03:38:46;18.30;99.90
53264;DHT22;39153;52.680;6.172;2022-08-20T03:41:12;18.30;99.90
53264;DHT22;39153;52.680;6.172;2022-08-20T03:43:38;18.40;99.90
53264;DHT22;39153;52.680;6.172;2022-08-20T03:46:06;18.30;99.90
53264;DHT22;39153;52.680;6.172;2022-08-20T03:48:32;18.40;99.90
53264;DHT22;39153;52.680;6.172;2022-08-20T03:50:58;18.40;99.90
53264;DHT22;39153;52.680;6.172;2022-08-20T03:53:26;18.20;99.90
53264;DHT22;39153;52.680;6.172;2022-08-20T03:55:54;18.10;99.90
53264;DHT22;39153;52.680;6.172;2022-08-20T03:58:20;18.10;99.90
53264;DHT22;39153;52.680;6.172;2022-08-20T04:00:49;18.10;99.90
53264;DHT22;39153;52.680;6.172;2022-08-20T04:03:15;18.20;99.90
53264;DHT22;39153;52.680;6.172;2022-08-20T04:05:42;18.10;99.90
53264;DHT22;39153;52.680;6.172;2022-08-20T04:08:14;18.10;99.90
53264;DHT22;39153;52.680;6.172;2022-08-20T04:10:41;18.00;99.90
53264;DHT22;39153;52.680;6.172;2022-08-20T04:13:07;17.90;99.90
53264;DHT22;39153;52.680;6.172;2022-08-20T04:15:34;17.90;99.90
53264;DHT22;39153;52.680;6.172;2022-08-20T04:18:03;17.90;99.90
53264;DHT22;39153;52.680;6.172;2022-08-20T04:20:32;18.00;99.90
53264;DHT22;39153;52.680;6.172;2022-08-20T04:22:58;17.90;99.90
53264;DHT22;39153;52.680;6.172;2022-08-20T04:25:24;17.90;99.90
53264;DHT22;39153;52.680;6.172;2022-08-20T04:27:49;17.90;99.90
53264;DHT22;39153;52.680;6.172;2022-08-20T04:30:18;17.90;99.90
53264;DHT22;39153;52.680;6.172;2022-08-20T04:32:44;17.80;99.90
53264;DHT22;39153;52.680;6.172;2022-08-20T04:35:12;17.70;99.90
53264;DHT22;39153;52.680;6.172;2022-08-20T04:37:46;17.70;99.90
53264;DHT22;39153;52.680;6.172;2022-08-20T04:40:17;17.70;99.90
53264;DHT22;39153;52.680;6.172;2022-08-20T04:43:03;17.70;99.90
53264;DHT22;39153;52.680;6.172;2022-08-20T04:45:33;17.50;99.90
53264;DHT22;39153;52.680;6.172;2022-08-20T04:48:04;17.50;99.90
53264;DHT22;39153;52.680;6.172;2022-08-20T04:50:32;17.50;99.90
53264;DHT22;39153;52.680;6.172;2022-08-20T04:53:03;17.50;99.90
53264;DHT22;39153;52.680;6.172;2022-08-20T04:55:28;17.50;99.90
53264;DHT22;39153;52.680;6.172;2022-08-20T04:57:57;17.50;99.90
53264;DHT22;39153;52.680;6.172;2022-08-20T05:00:26;17.50;99.90
53264;DHT22;39153;52.680;6.172;2022-08-20T05:02:52;17.60;99.90
53264;DHT22;39153;52.680;6.172;2022-08-20T05:05:17;17.50;99.90
53264;DHT22;39153;52.680;6.172;2022-08-20T05:07:45;17.60;99.90
53264;DHT22;39153;52.680;6.172;2022-08-20T05:10:13;17.40;99.90
53264;DHT22;39153;52.680;6.172;2022-08-20T05:12:40;17.60;99.90
53264;DHT22;39153;52.680;6.172;2022-08-20T05:15:08;17.60;99.90
53264;DHT22;39153;52.680;6.172;2022-08-20T05:17:36;17.60;99.90
53264;DHT22;39153;52.680;6.172;2022-08-20T05:20:04;17.60;99.90
53264;DHT22;39153;52.680;6.172;2022-08-20T05:22:30;17.60;99.90
53264;DHT22;39153;52.680;6.172;2022-08-20T05:24:56;17.70;99.90
53264;DHT22;39153;52.680;6.172;2022-08-20T05:27:24;17.60;99.90
53264;DHT22;39153;52.680;6.172;2022-08-20T05:29:53;17.60;99.90
53264;DHT22;39153;52.680;6.172;2022-08-20T05:32:19;17.70;99.90
53264;DHT22;39153;52.680;6.172;2022-08-20T05:34:45;17.80;99.90
53264;DHT22;39153;52.680;6.172;2022-08-20T05:37:11;17.80;99.90
53264;DHT22;39153;52.680;6.172;2022-08-20T05:39:36;17.80;99.90
53264;DHT22;39153;52.680;6.172;2022-08-20T05:42:02;17.90;99.90
53264;DHT22;39153;52.680;6.172;2022-08-20T05:44:28;17.90;99.90
53264;DHT22;39153;52.680;6.172;2022-08-20T05:46:53;18.00;99.90
53264;DHT22;39153;52.680;6.172;2022-08-20T05:49:20;18.10;99.90
53264;DHT22;39153;52.680;6.172;2022-08-20T05:51:47;18.00;99.90
53264;DHT22;39153;52.680;6.172;2022-08-20T05:54:13;18.10;99.90
53264;DHT22;39153;52.680;6.172;2022-08-20T05:56:39;18.00;99.90
53264;DHT22;39153;52.680;6.172;2022-08-20T05:59:06;18.00;99.90
53264;DHT22;39153;52.680;6.172;2022-08-20T06:01:35;17.90;99.90
53264;DHT22;39153;52.680;6.172;2022-08-20T06:04:01;18.00;99.90
53264;DHT22;39153;52.680;6.172;2022-08-20T06:06:45;17.90;99.90
53264;DHT22;39153;52.680;6.172;2022-08-20T06:09:11;17.90;99.90
53264;DHT22;39153;52.680;6.172;2022-08-20T06:11:37;17.90;99.90
53264;DHT22;39153;52.680;6.172;2022-08-20T06:14:03;18.00;99.90
53264;DHT22;39153;52.680;6.172;2022-08-20T06:16:29;18.10;99.90
53264;DHT22;39153;52.680;6.172;2022-08-20T06:18:55;18.20;99.90
53264;DHT22;39153;52.680;6.172;2022-08-20T06:21:20;18.20;99.90
53264;DHT22;39153;52.680;6.172;2022-08-20T06:23:46;18.30;99.90
53264;DHT22;39153;52.680;6.172;2022-08-20T06:26:12;18.30;99.90
53264;DHT22;39153;52.680;6.172;2022-08-20T06:28:38;18.40;99.90
53264;DHT22;39153;52.680;6.172;2022-08-20T06:31:03;18.50;99.90
53264;DHT22;39153;52.680;6.172;2022-08-20T06:33:29;18.50;99.90
53264;DHT22;39153;52.680;6.172;2022-08-20T06:35:55;18.50;99.90
53264;DHT22;39153;52.680;6.172;2022-08-20T06:38:20;18.60;99.90
53264;DHT22;39153;52.680;6.172;2022-08-20T06:40:46;18.60;99.90
53264;DHT22;39153;52.680;6.172;2022-08-20T06:43:12;18.70;99.90
53264;DHT22;39153;52.680;6.172;2022-08-20T06:45:39;18.80;99.90
53264;DHT22;39153;52.680;6.172;2022-08-20T06:48:08;18.80;99.90
53264;DHT22;39153;52.680;6.172;2022-08-20T06:50:40;18.90;99.90
53264;DHT22;39153;52.680;6.172;2022-08-20T06:53:10;19.00;99.90
53264;DHT22;39153;52.680;6.172;2022-08-20T06:55:38;19.00;99.90
53264;DHT22;39153;52.680;6.172;2022-08-20T06:58:07;18.90;99.90
53264;DHT22;39153;52.680;6.172;2022-08-20T07:00:34;19.00;99.90
53264;DHT22;39153;52.680;6.172;2022-08-20T07:03:01;19.00;99.90
53264;DHT22;39153;52.680;6.172;2022-08-20T07:05:32;18.90;99.90
53264;DHT22;39153;52.680;6.172;2022-08-20T07:07:58;18.90;99.90
53264;DHT22;39153;52.680;6.172;2022-08-20T07:10:26;19.00;99.90
53264;DHT22;39153;52.680;6.172;2022-08-20T07:12:52;19.00;99.90
53264;DHT22;39153;52.680;6.172;2022-08-20T07:15:20;19.00;99.90
53264;DHT22;39153;52.680;6.172;2022-08-20T07:17:51;19.10;99.90
53264;DHT22;39153;52.680;6.172;2022-08-20T07:20:18;19.10;99.90
53264;DHT22;39153;52.680;6.172;2022-08-20T07:22:44;19.20;99.90
53264;DHT22;39153;52.680;6.172;2022-08-20T07:25:12;19.20;99.90
53264;DHT22;39153;52.680;6.172;2022-08-20T07:27:39;19.20;99.90
53264;DHT22;39153;52.680;6.172;2022-08-20T07:30:07;19.20;99.90
53264;DHT22;39153;52.680;6.172;2022-08-20T07:32:52;19.30;99.90
53264;DHT22;39153;52.680;6.172;2022-08-20T07:35:18;19.40;99.90
53264;DHT22;39153;52.680;6.172;2022-08-20T07:37:46;19.40;99.90
53264;DHT22;39153;52.680;6.172;2022-08-20T07:40:18;19.40;99.90
53264;DHT22;39153;52.680;6.172;2022-08-20T07:42:45;19.50;99.90
53264;DHT22;39153;52.680;6.172;2022-08-20T07:45:13;19.60;99.90
53264;DHT22;39153;52.680;6.172;2022-08-20T07:47:41;19.60;99.90
53264;DHT22;39153;52.680;6.172;2022-08-20T07:50:09;19.70;99.90
53264;DHT22;39153;52.680;6.172;2022-08-20T07:52:35;19.70;99.90
53264;DHT22;39153;52.680;6.172;2022-08-20T07:55:06;19.70;99.90
53264;DHT22;39153;52.680;6.172;2022-08-20T07:57:33;19.70;99.90
53264;DHT22;39153;52.680;6.172;2022-08-20T07:59:59;19.80;99.90
53264;DHT22;39153;52.680;6.172;2022-08-20T08:02:26;19.90;99.90
53264;DHT22;39153;52.680;6.172;2022-08-20T08:04:52;19.90;99.90
53264;DHT22;39153;52.680;6.172;2022-08-20T08:07:18;19.80;99.90
53264;DHT22;39153;52.680;6.172;2022-08-20T08:09:45;19.90;99.90
53264;DHT22;39153;52.680;6.172;2022-08-20T08:12:12;19.90;99.90
53264;DHT22;39153;52.680;6.172;2022-08-20T08:14:40;19.90;99.90
53264;DHT22;39153;52.680;6.172;2022-08-20T08:17:08;20.00;99.90
53264;DHT22;39153;52.680;6.172;2022-08-20T08:19:37;19.90;99.90
53264;DHT22;39153;52.680;6.172;2022-08-20T08:22:05;19.90;99.90
53264;DHT22;39153;52.680;6.172;2022-08-20T08:24:32;20.00;99.90
53264;DHT22;39153;52.680;6.172;2022-08-20T08:26:58;20.10;99.90
53264;DHT22;39153;52.680;6.172;2022-08-20T08:29:24;20.10;99.90
53264;DHT22;39153;52.680;6.172;2022-08-20T08:31:49;20.10;99.90
53264;DHT22;39153;52.680;6.172;2022-08-20T08:34:15;20.20;99.90
53264;DHT22;39153;52.680;6.172;2022-08-20T08:36:41;20.10;99.90
53264;DHT22;39153;52.680;6.172;2022-08-20T08:39:08;20.30;99.90
53264;DHT22;39153;52.680;6.172;2022-08-20T08:44:14;20.30;99.90
53264;DHT22;39153;52.680;6.172;2022-08-20T08:46:47;20.20;99.90
53264;DHT22;39153;52.680;6.172;2022-08-20T08:49:19;20.40;99.90
53264;DHT22;39153;52.680;6.172;2022-08-20T08:51:59;20.50;99.90
53264;DHT22;39153;52.680;6.172;2022-08-20T08:54:28;20.60;99.90
53264;DHT22;39153;52.680;6.172;2022-08-20T08:56:56;20.60;99.90
53264;DHT22;39153;52.680;6.172;2022-08-20T08:59:26;20.70;99.90
53264;DHT22;39153;52.680;6.172;2022-08-20T09:01:55;20.70;99.90
53264;DHT22;39153;52.680;6.172;2022-08-20T09:04:31;20.90;99.90
53264;DHT22;39153;52.680;6.172;2022-08-20T09:06:58;21.00;99.50
53264;DHT22;39153;52.680;6.172;2022-08-20T09:09:32;21.10;98.50
53264;DHT22;39153;52.680;6.172;2022-08-20T09:12:10;21.20;96.50
53264;DHT22;39153;52.680;6.172;2022-08-20T09:14:37;21.40;97.30
53264;DHT22;39153;52.680;6.172;2022-08-20T09:17:03;21.40;97.40
53264;DHT22;39153;52.680;6.172;2022-08-20T09:19:29;21.70;98.50
53264;DHT22;39153;52.680;6.172;2022-08-20T09:21:55;21.80;98.20
53264;DHT22;39153;52.680;6.172;2022-08-20T09:24:21;21.90;98.00
53264;DHT22;39153;52.680;6.172;2022-08-20T09:26:46;21.90;98.70
53264;DHT22;39153;52.680;6.172;2022-08-20T09:29:12;22.10;99.00
53264;DHT22;39153;52.680;6.172;2022-08-20T09:31:38;22.30;99.00
53264;DHT22;39153;52.680;6.172;2022-08-20T09:34:04;22.10;97.60
53264;DHT22;39153;52.680;6.172;2022-08-20T09:36:30;22.20;98.20
53264;DHT22;39153;52.680;6.172;2022-08-20T09:38:55;22.50;97.90
53264;DHT22;39153;52.680;6.172;2022-08-20T09:41:21;22.40;98.10
53264;DHT22;39153;52.680;6.172;2022-08-20T09:43:47;22.60;97.20
53264;DHT22;39153;52.680;6.172;2022-08-20T09:46:13;22.70;97.50
53264;DHT22;39153;52.680;6.172;2022-08-20T09:48:38;22.70;97.20
53264;DHT22;39153;52.680;6.172;2022-08-20T09:51:04;22.90;97.50
53264;DHT22;39153;52.680;6.172;2022-08-20T09:53:30;22.80;95.60
53264;DHT22;39153;52.680;6.172;2022-08-20T09:55:57;22.80;95.70
53264;DHT22;39153;52.680;6.172;2022-08-20T09:58:38;22.50;94.70
53264;DHT22;39153;52.680;6.172;2022-08-20T10:01:09;22.80;95.90
53264;DHT22;39153;52.680;6.172;2022-08-20T10:03:36;22.80;94.70
53264;DHT22;39153;52.680;6.172;2022-08-20T10:06:02;22.80;94.40
53264;DHT22;39153;52.680;6.172;2022-08-20T10:08:28;23.00;94.30
53264;DHT22;39153;52.680;6.172;2022-08-20T10:10:53;22.90;94.40
53264;DHT22;39153;52.680;6.172;2022-08-20T10:13:19;23.10;95.10
53264;DHT22;39153;52.680;6.172;2022-08-20T10:15:45;23.10;93.10
53264;DHT22;39153;52.680;6.172;2022-08-20T10:18:10;23.00;92.90
53264;DHT22;39153;52.680;6.172;2022-08-20T10:20:36;23.20;93.30
53264;DHT22;39153;52.680;6.172;2022-08-20T10:23:02;23.20;92.50
53264;DHT22;39153;52.680;6.172;2022-08-20T10:25:28;23.20;92.00
53264;DHT22;39153;52.680;6.172;2022-08-20T10:27:54;23.20;91.50
53264;DHT22;39153;52.680;6.172;2022-08-20T10:30:20;23.40;93.10
53264;DHT22;39153;52.680;6.172;2022-08-20T10:32:46;23.30;92.40
53264;DHT22;39153;52.680;6.172;2022-08-20T10:35:12;23.50;91.40
53264;DHT22;39153;52.680;6.172;2022-08-20T10:37:38;23.40;91.00
53264;DHT22;39153;52.680;6.172;2022-08-20T10:40:04;23.50;91.60
53264;DHT22;39153;52.680;6.172;2022-08-20T10:42:30;23.60;91.80
53264;DHT22;39153;52.680;6.172;2022-08-20T10:44:56;23.70;90.80
53264;DHT22;39153;52.680;6.172;2022-08-20T10:47:27;23.70;90.90
53264;DHT22;39153;52.680;6.172;2022-08-20T10:49:57;23.60;91.10
53264;DHT22;39153;52.680;6.172;2022-08-20T10:52:23;23.60;90.60
53264;DHT22;39153;52.680;6.172;2022-08-20T10:54:49;23.70;91.00
53264;DHT22;39153;52.680;6.172;2022-08-20T10:57:18;23.80;91.70
53264;DHT22;39153;52.680;6.172;2022-08-20T10:59:45;24.00;91.30
53264;DHT22;39153;52.680;6.172;2022-08-20T11:02:12;23.90;91.10
53264;DHT22;39153;52.680;6.172;2022-08-20T11:04:38;24.10;90.60
53264;DHT22;39153;52.680;6.172;2022-08-20T11:09:50;24.50;90.50
53264;DHT22;39153;52.680;6.172;2022-08-20T11:12:18;24.80;91.00
53264;DHT22;39153;52.680;6.172;2022-08-20T11:14:44;24.90;91.10
53264;DHT22;39153;52.680;6.172;2022-08-20T11:17:11;25.30;91.90
53264;DHT22;39153;52.680;6.172;2022-08-20T11:19:41;25.30;91.10
53264;DHT22;39153;52.680;6.172;2022-08-20T11:22:09;25.10;90.20
53264;DHT22;39153;52.680;6.172;2022-08-20T11:24:35;24.40;89.60
53264;DHT22;39153;52.680;6.172;2022-08-20T11:27:04;24.60;90.30
53264;DHT22;39153;52.680;6.172;2022-08-20T11:29:30;24.70;89.60
53264;DHT22;39153;52.680;6.172;2022-08-20T11:31:55;24.90;91.30
53264;DHT22;39153;52.680;6.172;2022-08-20T11:34:21;24.80;90.70
53264;DHT22;39153;52.680;6.172;2022-08-20T11:36:47;24.30;88.60
53264;DHT22;39153;52.680;6.172;2022-08-20T11:39:13;24.70;90.50
53264;DHT22;39153;52.680;6.172;2022-08-20T11:41:39;24.60;89.80
53264;DHT22;39153;52.680;6.172;2022-08-20T11:44:05;24.30;89.40
53264;DHT22;39153;52.680;6.172;2022-08-20T11:46:31;24.10;91.00
53264;DHT22;39153;52.680;6.172;2022-08-20T11:48:58;24.00;90.50
53264;DHT22;39153;52.680;6.172;2022-08-20T11:51:23;24.30;91.30
53264;DHT22;39153;52.680;6.172;2022-08-20T11:53:49;24.60;90.40
53264;DHT22;39153;52.680;6.172;2022-08-20T11:56:15;25.00;90.60
53264;DHT22;39153;52.680;6.172;2022-08-20T11:58:41;25.30;90.10
53264;DHT22;39153;52.680;6.172;2022-08-20T12:01:07;25.50;89.00
53264;DHT22;39153;52.680;6.172;2022-08-20T12:03:34;25.70;89.70
53264;DHT22;39153;52.680;6.172;2022-08-20T12:05:59;25.90;88.00
53264;DHT22;39153;52.680;6.172;2022-08-20T12:08:25;26.00;87.50
53264;DHT22;39153;52.680;6.172;2022-08-20T12:10:51;25.40;87.20
53264;DHT22;39153;52.680;6.172;2022-08-20T12:13:16;25.60;88.50
53264;DHT22;39153;52.680;6.172;2022-08-20T12:15:42;26.00;87.10
53264;DHT22;39153;52.680;6.172;2022-08-20T12:18:08;25.80;85.70
53264;DHT22;39153;52.680;6.172;2022-08-20T12:20:36;25.00;86.10
53264;DHT22;39153;52.680;6.172;2022-08-20T12:23:02;25.00;87.20
53264;DHT22;39153;52.680;6.172;2022-08-20T12:25:28;24.50;88.00
53264;DHT22;39153;52.680;6.172;2022-08-20T12:27:53;24.30;89.10
53264;DHT22;39153;52.680;6.172;2022-08-20T12:30:21;24.40;89.10
53264;DHT22;39153;52.680;6.172;2022-08-20T12:32:48;24.50;89.10
53264;DHT22;39153;52.680;6.172;2022-08-20T12:35:15;24.60;88.30
53264;DHT22;39153;52.680;6.172;2022-08-20T12:37:43;24.30;88.60
53264;DHT22;39153;52.680;6.172;2022-08-20T12:40:13;24.30;90.30
53264;DHT22;39153;52.680;6.172;2022-08-20T12:42:39;24.40;88.60
53264;DHT22;39153;52.680;6.172;2022-08-20T12:45:06;24.20;89.40
53264;DHT22;39153;52.680;6.172;2022-08-20T12:47:34;24.20;88.70
53264;DHT22;39153;52.680;6.172;2022-08-20T12:50:07;24.40;89.50
53264;DHT22;39153;52.680;6.172;2022-08-20T12:52:34;25.00;89.70
53264;DHT22;39153;52.680;6.172;2022-08-20T12:55:00;24.90;88.40
53264;DHT22;39153;52.680;6.172;2022-08-20T12:57:31;25.10;88.60
53264;DHT22;39153;52.680;6.172;2022-08-20T13:00:05;25.40;86.40
53264;DHT22;39153;52.680;6.172;2022-08-20T13:02:31;25.40;87.30
53264;DHT22;39153;52.680;6.172;2022-08-20T13:04:57;25.60;84.80
53264;DHT22;39153;52.680;6.172;2022-08-20T13:07:23;25.90;86.80
53264;DHT22;39153;52.680;6.172;2022-08-20T13:09:49;25.80;86.00
53264;DHT22;39153;52.680;6.172;2022-08-20T13:12:15;26.20;86.20
53264;DHT22;39153;52.680;6.172;2022-08-20T13:14:41;26.50;86.80
53264;DHT22;39153;52.680;6.172;2022-08-20T13:17:07;26.70;85.60
53264;DHT22;39153;52.680;6.172;2022-08-20T13:19:35;26.40;83.20
53264;DHT22;39153;52.680;6.172;2022-08-20T13:22:01;26.50;83.70
53264;DHT22;39153;52.680;6.172;2022-08-20T13:24:28;26.00;83.50
53264;DHT22;39153;52.680;6.172;2022-08-20T13:26:56;26.00;84.50
53264;DHT22;39153;52.680;6.172;2022-08-20T13:29:28;26.40;86.20
53264;DHT22;39153;52.680;6.172;2022-08-20T13:31:54;26.70;85.40
53264;DHT22;39153;52.680;6.172;2022-08-20T13:34:20;26.20;82.10
53264;DHT22;39153;52.680;6.172;2022-08-20T13:36:45;26.90;81.20
53264;DHT22;39153;52.680;6.172;2022-08-20T13:39:11;27.20;82.00
53264;DHT22;39153;52.680;6.172;2022-08-20T13:41:36;27.00;82.10
53264;DHT22;39153;52.680;6.172;2022-08-20T13:44:02;27.00;82.50
53264;DHT22;39153;52.680;6.172;2022-08-20T13:46:28;27.30;82.30
53264;DHT22;39153;52.680;6.172;2022-08-20T13:48:54;27.50;80.90
53264;DHT22;39153;52.680;6.172;2022-08-20T13:51:19;27.70;82.30
53264;DHT22;39153;52.680;6.172;2022-08-20T13:53:45;27.80;80.70
53264;DHT22;39153;52.680;6.172;2022-08-20T13:56:11;28.40;83.70
53264;DHT22;39153;52.680;6.172;2022-08-20T13:58:36;28.10;80.70
53264;DHT22;39153;52.680;6.172;2022-08-20T14:01:02;28.00;80.50
53264;DHT22;39153;52.680;6.172;2022-08-20T14:03:28;28.10;80.30
53264;DHT22;39153;52.680;6.172;2022-08-20T14:05:53;27.80;81.20
53264;DHT22;39153;52.680;6.172;2022-08-20T14:08:21;28.00;79.40
53264;DHT22;39153;52.680;6.172;2022-08-20T14:10:48;27.50;79.00
53264;DHT22;39153;52.680;6.172;2022-08-20T14:13:16;27.70;79.10
53264;DHT22;39153;52.680;6.172;2022-08-20T14:15:42;27.90;78.20
53264;DHT22;39153;52.680;6.172;2022-08-20T14:18:08;27.90;78.20
53264;DHT22;39153;52.680;6.172;2022-08-20T14:20:34;28.50;79.20
53264;DHT22;39153;52.680;6.172;2022-08-20T14:23:00;28.30;77.20
53264;DHT22;39153;52.680;6.172;2022-08-20T14:25:27;27.70;76.50
53264;DHT22;39153;52.680;6.172;2022-08-20T14:27:53;27.20;76.50
53264;DHT22;39153;52.680;6.172;2022-08-20T14:30:30;27.20;78.60
53264;DHT22;39153;52.680;6.172;2022-08-20T14:32:55;26.90;78.40
53264;DHT22;39153;52.680;6.172;2022-08-20T14:35:21;26.90;79.40
53264;DHT22;39153;52.680;6.172;2022-08-20T14:37:50;27.10;77.80
53264;DHT22;39153;52.680;6.172;2022-08-20T14:40:22;27.60;78.20
53264;DHT22;39153;52.680;6.172;2022-08-20T14:42:49;28.00;77.60
53264;DHT22;39153;52.680;6.172;2022-08-20T14:45:15;28.70;79.90
53264;DHT22;39153;52.680;6.172;2022-08-20T14:47:47;29.30;79.70
53264;DHT22;39153;52.680;6.172;2022-08-20T14:50:19;28.50;76.20
53264;DHT22;39153;52.680;6.172;2022-08-20T14:52:45;29.00;77.40
53264;DHT22;39153;52.680;6.172;2022-08-20T14:55:15;29.10;76.20
53264;DHT22;39153;52.680;6.172;2022-08-20T14:57:41;29.00;77.80
53264;DHT22;39153;52.680;6.172;2022-08-20T15:00:09;29.70;78.30
53264;DHT22;39153;52.680;6.172;2022-08-20T15:02:36;29.20;76.00
53264;DHT22;39153;52.680;6.172;2022-08-20T15:05:03;29.10;75.60
53264;DHT22;39153;52.680;6.172;2022-08-20T15:07:31;29.00;75.70
53264;DHT22;39153;52.680;6.172;2022-08-20T15:09:58;29.50;75.80
53264;DHT22;39153;52.680;6.172;2022-08-20T15:12:25;28.60;75.50
53264;DHT22;39153;52.680;6.172;2022-08-20T15:14:51;28.40;74.40
53264;DHT22;39153;52.680;6.172;2022-08-20T15:17:25;29.00;75.70
53264;DHT22;39153;52.680;6.172;2022-08-20T15:19:52;29.50;76.20
53264;DHT22;39153;52.680;6.172;2022-08-20T15:22:19;29.50;75.60
53264;DHT22;39153;52.680;6.172;2022-08-20T15:24:45;30.10;75.70
53264;DHT22;39153;52.680;6.172;2022-08-20T15:27:12;29.60;74.90
53264;DHT22;39153;52.680;6.172;2022-08-20T15:29:39;28.70;73.90
53264;DHT22;39153;52.680;6.172;2022-08-20T15:32:05;28.20;74.50
53264;DHT22;39153;52.680;6.172;2022-08-20T15:34:31;28.10;74.60
53264;DHT22;39153;52.680;6.172;2022-08-20T15:36:57;28.50;75.70
53264;DHT22;39153;52.680;6.172;2022-08-20T15:39:23;28.80;75.20
53264;DHT22;39153;52.680;6.172;2022-08-20T15:41:48;29.30;75.90